createdAt,value
2019-02-02T00:03:22.370Z,60.03
2019-02-02T00:07:42.858Z,59.60
2019-02-02T00:12:03.404Z,57.53
2019-02-02T00:16:24.044Z,62.43
2019-02-02T00:20:44.527Z,61.60
2019-02-02T00:25:05.453Z,65.00
2019-02-02T00:29:26.141Z,62.83
2019-02-02T00:33:46.847Z,62.90
2019-02-02T00:38:07.142Z,65.00
2019-02-02T00:42:27.507Z,67.12
2019-02-02T00:46:47.954Z,66.25
2019-02-02T00:51:08.303Z,68.92
2019-02-02T00:55:28.560Z,67.17
2019-02-02T00:59:48.880Z,72.05
2019-02-02T01:04:09.017Z,71.07
2019-02-02T01:08:29.273Z,70.37
2019-02-02T01:12:49.684Z,71.53
2019-02-02T01:17:09.889Z,73.35
2019-02-02T01:21:30.342Z,72.53
2019-02-02T01:25:50.535Z,75.57
2019-02-02T01:30:16.498Z,74.62
2019-02-02T01:34:36.808Z,73.65
2019-02-02T01:38:57.371Z,76.40
2019-02-02T01:43:17.581Z,74.25
2019-02-02T01:47:37.834Z,72.42
2019-02-02T01:51:58.347Z,74.22
2019-02-02T01:56:18.559Z,74.22
2019-02-02T02:00:39.112Z,73.65
2019-02-02T02:05:03.706Z,74.22
2019-02-02T02:09:24.168Z,75.32
2019-02-02T02:13:44.418Z,75.78
2019-02-02T02:18:04.799Z,76.60
2019-02-02T02:22:25.323Z,72.72
2019-02-02T02:26:45.360Z,74.82
2019-02-02T02:31:05.959Z,74.65
2019-02-02T02:35:26.844Z,76.70
2019-02-02T02:39:47.970Z,83.10
2019-02-02T02:44:08.399Z,80.60
2019-02-02T02:48:28.937Z,80.38
2019-02-02T02:52:48.963Z,79.22
2019-02-02T02:57:09.339Z,80.22
2019-02-02T03:01:29.898Z,81.02
2019-02-02T03:05:50.279Z,81.15
2019-02-02T03:10:12.956Z,81.32
2019-02-02T03:14:33.121Z,80.40
2019-02-02T03:18:53.551Z,78.57
2019-02-02T03:23:13.841Z,81.05
2019-02-02T03:27:34.301Z,81.90
2019-02-02T03:31:54.573Z,79.92
2019-02-02T03:36:14.822Z,79.87
2019-02-02T03:40:34.886Z,82.10
2019-02-02T03:44:55.779Z,83.62
2019-02-02T03:49:15.727Z,82.27
2019-02-02T03:53:36.305Z,85.47
2019-02-02T03:57:56.560Z,82.82
2019-02-02T04:02:16.865Z,81.80
2019-02-02T04:06:37.475Z,80.25
2019-02-02T04:10:58.195Z,81.55
2019-02-02T04:15:18.452Z,83.87
2019-02-02T04:19:38.551Z,81.45
2019-02-02T04:23:58.992Z,81.87
2019-02-02T04:28:20.248Z,79.85
2019-02-02T04:32:40.628Z,79.77
2019-02-02T04:37:01.532Z,81.35
2019-02-02T04:41:21.797Z,80.38
2019-02-02T04:45:42.198Z,78.33
2019-02-02T04:50:05.203Z,80.32
2019-02-02T04:54:25.492Z,80.70
2019-02-02T04:58:45.794Z,81.67
2019-02-02T05:03:06.183Z,79.67
2019-02-02T05:07:26.379Z,76.77
2019-02-02T05:11:46.695Z,76.47
2019-02-02T05:16:07.156Z,79.37
2019-02-02T05:20:27.355Z,77.58
2019-02-02T05:24:48.213Z,77.65
2019-02-02T05:29:08.657Z,79.82
2019-02-02T05:33:30.071Z,77.00
2019-02-02T05:37:50.565Z,77.78
2019-02-02T05:42:11.082Z,78.17
2019-02-02T05:46:31.216Z,75.47
2019-02-02T05:50:51.555Z,74.87
2019-02-02T05:55:13.581Z,80.00
2019-02-02T05:59:34.096Z,77.47
2019-02-02T06:03:54.497Z,75.87
2019-02-02T06:08:14.705Z,78.62
2019-02-02T06:12:35.271Z,77.22
2019-02-02T06:16:56.000Z,77.42
2019-02-02T06:21:16.271Z,77.55
2019-02-02T06:25:37.363Z,78.33
2019-02-02T06:30:04.613Z,77.58
2019-02-02T06:34:20.375Z,75.62
2019-02-02T06:38:40.739Z,80.50
2019-02-02T07:04:45.943Z,18.02
2019-02-02T07:09:11.193Z,16.87
2019-02-02T07:14:51.812Z,16.93
2019-02-02T07:19:16.483Z,16.55
2019-02-02T09:34:23.666Z,14.98
2019-02-02T09:43:33.487Z,69.00
2019-02-02T09:47:57.815Z,66.07
2019-02-02T09:52:23.754Z,68.22
2019-02-02T09:56:49.647Z,65.20
2019-02-02T10:01:13.633Z,67.65
2019-02-02T10:05:37.725Z,66.70
2019-02-02T10:10:02.154Z,66.22
2019-02-02T10:14:26.723Z,66.37
2019-02-02T10:18:51.031Z,66.22
2019-02-02T10:23:15.309Z,70.05
2019-02-02T10:27:41.654Z,64.77
2019-02-02T10:32:06.151Z,67.67
2019-02-02T10:36:30.244Z,67.42
2019-02-02T10:40:54.762Z,68.90
2019-02-02T10:45:19.075Z,69.47
2019-02-02T10:49:43.640Z,68.22
2019-02-02T10:54:08.038Z,71.55
2019-02-02T10:58:32.531Z,71.30
2019-02-02T11:02:56.621Z,72.12
2019-02-02T11:07:20.918Z,72.70
2019-02-02T11:11:46.959Z,72.35
2019-02-02T11:16:11.335Z,73.33
2019-02-02T11:20:36.749Z,71.07
2019-02-02T11:25:01.161Z,71.65
2019-02-02T11:29:25.768Z,70.65
2019-02-02T11:33:51.396Z,71.42
2019-02-02T11:38:19.059Z,72.08
2019-02-02T11:42:43.674Z,72.40
2019-02-02T11:47:07.764Z,71.05
2019-02-02T11:51:31.952Z,70.90
2019-02-02T11:55:56.246Z,72.08
2019-02-02T12:00:25.395Z,71.62
2019-02-02T12:04:50.107Z,73.90
2019-02-02T12:09:14.143Z,73.12
2019-02-02T12:13:39.668Z,71.62
2019-02-02T12:18:04.304Z,76.72
2019-02-02T12:22:28.359Z,75.60
2019-02-02T12:26:52.857Z,73.25
2019-02-02T12:31:17.053Z,70.52
2019-02-02T12:35:41.242Z,75.15
2019-02-02T12:40:11.437Z,72.12
2019-02-02T12:44:35.565Z,76.97
2019-02-02T12:48:59.553Z,75.83
2019-02-02T12:53:23.746Z,74.55
2019-02-02T12:57:49.721Z,78.07
2019-02-02T13:02:15.615Z,75.90
2019-02-02T13:06:40.010Z,78.62
2019-02-02T13:11:03.993Z,74.80
2019-02-02T13:15:29.210Z,77.30
2019-02-02T13:19:53.403Z,75.22
2019-02-02T13:24:17.387Z,75.85
2019-02-02T13:28:41.376Z,81.25
2019-02-02T13:33:07.130Z,80.30
2019-02-02T13:37:33.692Z,77.40
2019-02-02T13:41:57.945Z,78.30
2019-02-02T13:46:22.342Z,75.52
2019-02-02T13:50:46.359Z,73.97
2019-02-02T13:55:10.627Z,70.83
2019-02-02T13:59:35.473Z,69.37
2019-02-02T14:03:59.965Z,67.87
2019-02-02T14:08:24.226Z,69.97
2019-02-02T14:12:48.653Z,69.40
2019-02-02T14:17:12.504Z,66.30
2019-02-02T14:21:36.902Z,68.50
2019-02-02T14:26:01.713Z,70.40
2019-02-02T14:30:26.585Z,66.33
2019-02-02T14:34:53.272Z,65.60
2019-02-02T14:39:20.238Z,64.20
2019-02-02T14:43:44.313Z,61.90
2019-02-02T14:48:08.713Z,63.70
2019-02-02T14:52:37.407Z,62.33
2019-02-02T14:57:03.034Z,61.53
2019-02-02T15:01:28.862Z,63.65
2019-02-02T15:05:53.059Z,60.35
2019-02-02T15:10:18.977Z,59.55
2019-02-02T15:14:43.285Z,61.53
2019-02-02T15:19:07.412Z,60.70
2019-02-02T15:23:31.977Z,60.98
2019-02-02T15:27:56.165Z,60.23
2019-02-02T15:32:22.406Z,59.03
2019-02-02T15:36:46.701Z,59.30
2019-02-02T15:41:10.892Z,59.75
2019-02-02T15:45:38.734Z,59.33
2019-02-02T15:50:03.066Z,57.78
2019-02-02T15:54:28.178Z,57.00
2019-02-02T15:58:53.293Z,55.33
2019-02-02T16:03:17.484Z,58.60
2019-02-02T16:07:41.983Z,50.75
2019-02-02T16:12:06.802Z,53.17
2019-02-02T16:16:31.392Z,52.88
2019-02-02T16:20:55.406Z,54.08
2019-02-02T16:25:23.210Z,52.98
2019-02-02T16:29:48.267Z,51.20
2019-02-02T16:34:12.767Z,52.25
2019-02-02T16:38:37.368Z,51.25
2019-02-02T16:43:01.460Z,54.63
2019-02-02T16:47:25.656Z,52.45
2019-02-02T16:51:49.738Z,50.98
2019-02-02T16:56:14.238Z,52.20
2019-02-02T17:00:38.737Z,50.33
2019-02-02T17:05:02.831Z,50.08
2019-02-02T17:09:27.123Z,50.05
2019-02-02T17:13:52.549Z,51.58
2019-02-02T17:18:16.638Z,50.58
2019-02-02T17:22:41.950Z,51.60
2019-02-02T17:27:05.938Z,51.23
2019-02-02T17:31:30.129Z,52.80
2019-02-02T17:35:54.117Z,49.30
2019-02-02T17:40:26.939Z,50.88
2019-02-02T17:44:52.073Z,49.15
2019-02-02T17:49:16.113Z,50.92
2019-02-02T17:53:40.407Z,49.95
2019-02-02T17:58:05.011Z,49.20
2019-02-02T18:02:28.895Z,51.88
2019-02-02T18:06:52.882Z,50.12
2019-02-02T18:11:17.277Z,49.53
2019-02-02T18:15:42.084Z,52.00
2019-02-02T18:20:10.399Z,50.23
2019-02-02T18:24:34.467Z,47.17
2019-02-02T18:29:00.909Z,48.17
2019-02-02T18:33:24.897Z,47.65
2019-02-02T18:37:50.962Z,51.83
2019-02-02T18:42:15.330Z,48.68
2019-02-02T18:46:40.417Z,46.90
2019-02-02T18:51:04.426Z,48.13
2019-02-02T18:55:34.764Z,46.90
2019-02-02T19:00:00.330Z,44.80
2019-02-02T19:04:24.812Z,44.10
2019-02-02T19:08:48.672Z,45.35
2019-02-02T19:13:13.553Z,41.73
2019-02-02T19:17:37.911Z,44.33
2019-02-02T19:22:02.168Z,43.78
2019-02-02T19:26:27.084Z,42.62
2019-02-02T19:30:53.566Z,43.68
2019-02-02T19:35:17.003Z,42.10
2019-02-02T19:39:41.496Z,42.00
2019-02-02T19:44:05.689Z,43.65
2019-02-02T19:48:33.568Z,42.98
2019-02-02T19:52:58.094Z,40.60
2019-02-02T19:57:23.489Z,43.38
2019-02-02T20:01:48.558Z,42.58
2019-02-02T20:06:12.739Z,42.03
2019-02-02T20:10:38.109Z,44.93
2019-02-02T20:15:02.951Z,44.77
2019-02-02T20:19:27.930Z,45.05
2019-02-02T20:23:51.915Z,46.18
2019-02-02T20:28:16.414Z,46.77
2019-02-02T20:32:40.810Z,43.92
2019-02-02T20:37:05.825Z,44.38
2019-02-02T20:41:31.090Z,47.95
2019-02-02T20:45:57.275Z,47.27
2019-02-02T20:50:23.825Z,51.83
2019-02-02T20:54:48.358Z,49.20
2019-02-02T20:59:14.052Z,54.18
2019-02-02T21:03:39.790Z,53.38
2019-02-02T21:08:04.381Z,53.80
2019-02-02T21:12:30.665Z,54.85
2019-02-02T21:16:55.576Z,49.53
2019-02-02T21:21:30.681Z,50.15
2019-02-02T21:25:55.200Z,52.30
2019-02-02T21:30:29.098Z,49.25
2019-02-02T21:34:54.552Z,49.00
2019-02-02T21:39:18.713Z,48.10
2019-02-02T21:43:43.314Z,46.73
2019-02-02T21:48:07.196Z,43.58
2019-02-02T21:52:31.491Z,45.05
2019-02-02T21:56:56.811Z,41.45
2019-02-02T22:01:24.105Z,42.80
2019-02-02T22:05:47.447Z,42.35
2019-02-02T22:10:16.688Z,43.13
2019-02-02T22:14:40.956Z,43.67
2019-02-02T22:19:04.837Z,40.95
2019-02-02T22:23:30.086Z,40.23
2019-02-02T22:27:54.144Z,39.18
2019-02-02T22:32:18.654Z,37.60
2019-02-02T22:36:43.242Z,36.55
2019-02-02T22:41:07.359Z,38.42
2019-02-02T22:45:31.934Z,39.05
2019-02-02T22:49:56.638Z,35.00
2019-02-02T22:54:21.040Z,35.45
2019-02-02T22:58:45.160Z,34.53
2019-02-02T23:03:11.603Z,35.28
2019-02-02T23:07:39.241Z,35.43
2019-02-02T23:12:06.232Z,35.20
2019-02-02T23:16:31.108Z,35.35
2019-02-02T23:20:55.095Z,34.43
2019-02-02T23:25:19.083Z,35.23
2019-02-02T23:29:43.070Z,35.23
2019-02-02T23:34:07.273Z,31.05
2019-02-02T23:38:31.657Z,31.90
2019-02-02T23:42:55.748Z,31.30
2019-02-02T23:47:19.404Z,29.50
2019-02-02T23:51:43.198Z,32.25
2019-02-02T23:56:07.547Z,29.75
